sensor_id;sensor_type;location;lat;lon;timestamp;P1;durP1;ratioP1;P2;durP2;ratioP2
2388;SDS011;1205;47.984;7.668;2023-04-03T00:00:11;3.00;;;2.90;;
2388;SDS011;1205;47.984;7.668;2023-04-03T00:02:38;3.00;;;2.80;;
2388;SDS011;1205;47.984;7.668;2023-04-03T00:05:05;3.63;;;3.00;;
2388;SDS011;1205;47.984;7.668;2023-04-03T00:07:31;2.20;;;2.10;;
2388;SDS011;1205;47.984;7.668;2023-04-03T00:09:57;3.03;;;2.90;;
2388;SDS011;1205;47.984;7.668;2023-04-03T00:12:22;2.90;;;2.70;;
2388;SDS011;1205;47.984;7.668;2023-04-03T00:14:48;3.00;;;2.70;;
2388;SDS011;1205;47.984;7.668;2023-04-03T00:17:13;2.50;;;2.30;;
2388;SDS011;1205;47.984;7.668;2023-04-03T00:19:39;2.50;;;2.40;;
2388;SDS011;1205;47.984;7.668;2023-04-03T00:22:05;2.93;;;2.83;;
2388;SDS011;1205;47.984;7.668;2023-04-03T00:24:30;3.33;;;2.50;;
2388;SDS011;1205;47.984;7.668;2023-04-03T00:26:56;2.23;;;2.00;;
2388;SDS011;1205;47.984;7.668;2023-04-03T00:29:21;3.20;;;3.00;;
2388;SDS011;1205;47.984;7.668;2023-04-03T00:31:47;3.43;;;3.13;;
2388;SDS011;1205;47.984;7.668;2023-04-03T00:34:13;2.47;;;2.37;;
2388;SDS011;1205;47.984;7.668;2023-04-03T00:36:38;4.20;;;2.53;;
2388;SDS011;1205;47.984;7.668;2023-04-03T00:39:04;3.10;;;2.87;;
2388;SDS011;1205;47.984;7.668;2023-04-03T00:41:30;2.20;;;2.10;;
2388;SDS011;1205;47.984;7.668;2023-04-03T00:43:56;3.63;;;1.90;;
2388;SDS011;1205;47.984;7.668;2023-04-03T00:46:22;2.70;;;2.50;;
2388;SDS011;1205;47.984;7.668;2023-04-03T00:48:48;2.63;;;2.43;;
2388;SDS011;1205;47.984;7.668;2023-04-03T00:51:16;2.40;;;2.20;;
2388;SDS011;1205;47.984;7.668;2023-04-03T00:53:55;2.47;;;2.10;;
2388;SDS011;1205;47.984;7.668;2023-04-03T00:56:24;3.07;;;2.40;;
2388;SDS011;1205;47.984;7.668;2023-04-03T00:58:54;2.03;;;1.93;;
2388;SDS011;1205;47.984;7.668;2023-04-03T01:01:22;2.77;;;2.60;;
2388;SDS011;1205;47.984;7.668;2023-04-03T01:03:50;2.43;;;2.10;;
2388;SDS011;1205;47.984;7.668;2023-04-03T01:06:16;3.97;;;2.10;;
2388;SDS011;1205;47.984;7.668;2023-04-03T01:08:44;2.40;;;2.20;;
2388;SDS011;1205;47.984;7.668;2023-04-03T01:11:11;1.97;;;1.87;;
2388;SDS011;1205;47.984;7.668;2023-04-03T01:13:37;3.50;;;2.20;;
2388;SDS011;1205;47.984;7.668;2023-04-03T01:16:03;1.97;;;1.87;;
2388;SDS011;1205;47.984;7.668;2023-04-03T01:18:30;2.57;;;2.47;;
2388;SDS011;1205;47.984;7.668;2023-04-03T01:26:00;3.90;;;2.03;;
2388;SDS011;1205;47.984;7.668;2023-04-03T01:28:27;2.50;;;2.30;;
2388;SDS011;1205;47.984;7.668;2023-04-03T01:31:00;2.37;;;2.27;;
2388;SDS011;1205;47.984;7.668;2023-04-03T01:33:34;2.23;;;2.10;;
2388;SDS011;1205;47.984;7.668;2023-04-03T01:36:00;2.53;;;2.33;;
2388;SDS011;1205;47.984;7.668;2023-04-03T01:38:26;3.43;;;2.10;;
2388;SDS011;1205;47.984;7.668;2023-04-03T01:40:52;2.40;;;2.20;;
2388;SDS011;1205;47.984;7.668;2023-04-03T01:43:18;2.47;;;2.27;;
2388;SDS011;1205;47.984;7.668;2023-04-03T01:45:43;2.80;;;2.60;;
2388;SDS011;1205;47.984;7.668;2023-04-03T01:48:09;2.50;;;2.10;;
2388;SDS011;1205;47.984;7.668;2023-04-03T01:50:34;3.20;;;2.20;;
2388;SDS011;1205;47.984;7.668;2023-04-03T01:53:00;2.23;;;2.13;;
2388;SDS011;1205;47.984;7.668;2023-04-03T01:55:25;2.13;;;2.03;;
2388;SDS011;1205;47.984;7.668;2023-04-03T01:57:51;4.30;;;1.83;;
2388;SDS011;1205;47.984;7.668;2023-04-03T02:00:17;3.33;;;2.53;;
2388;SDS011;1205;47.984;7.668;2023-04-03T02:02:42;3.13;;;2.93;;
2388;SDS011;1205;47.984;7.668;2023-04-03T02:05:08;2.20;;;2.00;;
2388;SDS011;1205;47.984;7.668;2023-04-03T02:07:34;2.70;;;2.50;;
2388;SDS011;1205;47.984;7.668;2023-04-03T02:09:59;2.53;;;2.33;;
2388;SDS011;1205;47.984;7.668;2023-04-03T02:12:25;3.07;;;2.50;;
2388;SDS011;1205;47.984;7.668;2023-04-03T02:14:50;2.53;;;2.43;;
2388;SDS011;1205;47.984;7.668;2023-04-03T02:17:16;2.50;;;2.20;;
2388;SDS011;1205;47.984;7.668;2023-04-03T02:19:42;3.43;;;2.40;;
2388;SDS011;1205;47.984;7.668;2023-04-03T02:22:08;4.10;;;3.03;;
2388;SDS011;1205;47.984;7.668;2023-04-03T02:24:33;2.50;;;2.40;;
2388;SDS011;1205;47.984;7.668;2023-04-03T02:26:59;3.77;;;2.83;;
2388;SDS011;1205;47.984;7.668;2023-04-03T02:29:31;2.50;;;2.40;;
2388;SDS011;1205;47.984;7.668;2023-04-03T02:31:56;3.93;;;2.80;;
2388;SDS011;1205;47.984;7.668;2023-04-03T02:34:22;2.67;;;2.43;;
2388;SDS011;1205;47.984;7.668;2023-04-03T02:36:47;6.43;;;2.70;;
2388;SDS011;1205;47.984;7.668;2023-04-03T02:39:13;2.07;;;2.00;;
2388;SDS011;1205;47.984;7.668;2023-04-03T02:41:39;2.47;;;2.27;;
2388;SDS011;1205;47.984;7.668;2023-04-03T02:44:05;3.30;;;3.00;;
2388;SDS011;1205;47.984;7.668;2023-04-03T02:46:32;2.27;;;2.10;;
2388;SDS011;1205;47.984;7.668;2023-04-03T02:48:58;1.90;;;1.80;;
2388;SDS011;1205;47.984;7.668;2023-04-03T02:51:23;3.13;;;2.00;;
2388;SDS011;1205;47.984;7.668;2023-04-03T02:53:49;2.00;;;1.90;;
2388;SDS011;1205;47.984;7.668;2023-04-03T02:56:15;2.40;;;2.30;;
2388;SDS011;1205;47.984;7.668;2023-04-03T02:58:42;6.70;;;2.60;;
2388;SDS011;1205;47.984;7.668;2023-04-03T03:01:07;1.87;;;1.77;;
2388;SDS011;1205;47.984;7.668;2023-04-03T03:03:33;4.60;;;2.27;;
2388;SDS011;1205;47.984;7.668;2023-04-03T03:06:05;1.73;;;1.63;;
2388;SDS011;1205;47.984;7.668;2023-04-03T03:08:33;2.40;;;2.17;;
2388;SDS011;1205;47.984;7.668;2023-04-03T03:10:58;2.00;;;1.90;;
2388;SDS011;1205;47.984;7.668;2023-04-03T03:13:24;2.30;;;2.10;;
2388;SDS011;1205;47.984;7.668;2023-04-03T03:15:50;2.03;;;1.83;;
2388;SDS011;1205;47.984;7.668;2023-04-03T03:18:15;2.30;;;2.10;;
2388;SDS011;1205;47.984;7.668;2023-04-03T03:20:41;2.33;;;2.23;;
2388;SDS011;1205;47.984;7.668;2023-04-03T03:23:07;2.17;;;2.07;;
2388;SDS011;1205;47.984;7.668;2023-04-03T03:25:32;1.97;;;1.87;;
2388;SDS011;1205;47.984;7.668;2023-04-03T03:27:58;2.23;;;2.10;;
2388;SDS011;1205;47.984;7.668;2023-04-03T03:30:24;1.90;;;1.80;;
2388;SDS011;1205;47.984;7.668;2023-04-03T03:32:50;6.23;;;2.23;;
2388;SDS011;1205;47.984;7.668;2023-04-03T03:35:15;1.97;;;1.87;;
2388;SDS011;1205;47.984;7.668;2023-04-03T03:37:41;2.23;;;2.10;;
2388;SDS011;1205;47.984;7.668;2023-04-03T03:40:06;2.43;;;2.17;;
2388;SDS011;1205;47.984;7.668;2023-04-03T03:42:33;7.77;;;2.60;;
2388;SDS011;1205;47.984;7.668;2023-04-03T03:44:58;3.03;;;2.23;;
2388;SDS011;1205;47.984;7.668;2023-04-03T03:47:24;2.10;;;2.00;;
2388;SDS011;1205;47.984;7.668;2023-04-03T03:49:50;2.10;;;1.97;;
2388;SDS011;1205;47.984;7.668;2023-04-03T03:52:16;1.93;;;1.87;;
2388;SDS011;1205;47.984;7.668;2023-04-03T03:54:41;4.10;;;2.80;;
2388;SDS011;1205;47.984;7.668;2023-04-03T03:57:07;2.60;;;2.03;;
2388;SDS011;1205;47.984;7.668;2023-04-03T03:59:32;2.50;;;2.33;;
2388;SDS011;1205;47.984;7.668;2023-04-03T04:01:58;2.00;;;1.90;;
2388;SDS011;1205;47.984;7.668;2023-04-03T04:04:23;2.30;;;2.20;;
2388;SDS011;1205;47.984;7.668;2023-04-03T04:06:49;2.43;;;2.33;;
2388;SDS011;1205;47.984;7.668;2023-04-03T04:09:15;1.93;;;1.83;;
2388;SDS011;1205;47.984;7.668;2023-04-03T04:11:41;2.57;;;2.40;;
2388;SDS011;1205;47.984;7.668;2023-04-03T04:14:06;2.13;;;2.03;;
2388;SDS011;1205;47.984;7.668;2023-04-03T04:16:32;2.73;;;2.53;;
2388;SDS011;1205;47.984;7.668;2023-04-03T04:18:57;2.33;;;2.13;;
2388;SDS011;1205;47.984;7.668;2023-04-03T04:21:23;2.33;;;2.23;;
2388;SDS011;1205;47.984;7.668;2023-04-03T04:23:49;2.53;;;2.30;;
2388;SDS011;1205;47.984;7.668;2023-04-03T04:26:14;2.40;;;2.30;;
2388;SDS011;1205;47.984;7.668;2023-04-03T04:28:40;2.00;;;1.80;;
2388;SDS011;1205;47.984;7.668;2023-04-03T04:31:05;2.90;;;2.70;;
2388;SDS011;1205;47.984;7.668;2023-04-03T04:33:31;3.07;;;2.47;;
2388;SDS011;1205;47.984;7.668;2023-04-03T04:35:57;2.23;;;2.13;;
2388;SDS011;1205;47.984;7.668;2023-04-03T04:38:22;4.13;;;2.73;;
2388;SDS011;1205;47.984;7.668;2023-04-03T04:40:48;3.03;;;2.70;;
2388;SDS011;1205;47.984;7.668;2023-04-03T04:43:14;2.50;;;2.40;;
2388;SDS011;1205;47.984;7.668;2023-04-03T04:45:40;2.40;;;2.20;;
2388;SDS011;1205;47.984;7.668;2023-04-03T04:48:06;2.43;;;2.30;;
2388;SDS011;1205;47.984;7.668;2023-04-03T04:50:32;3.30;;;2.20;;
2388;SDS011;1205;47.984;7.668;2023-04-03T04:52:57;3.50;;;3.20;;
2388;SDS011;1205;47.984;7.668;2023-04-03T04:55:23;2.80;;;2.60;;
2388;SDS011;1205;47.984;7.668;2023-04-03T04:57:48;2.47;;;2.37;;
2388;SDS011;1205;47.984;7.668;2023-04-03T05:00:14;4.07;;;2.37;;
2388;SDS011;1205;47.984;7.668;2023-04-03T05:02:40;2.50;;;2.40;;
2388;SDS011;1205;47.984;7.668;2023-04-03T05:05:06;2.60;;;2.50;;
2388;SDS011;1205;47.984;7.668;2023-04-03T05:07:32;2.93;;;2.70;;
2388;SDS011;1205;47.984;7.668;2023-04-03T05:09:58;2.47;;;2.37;;
2388;SDS011;1205;47.984;7.668;2023-04-03T05:12:23;2.20;;;2.10;;
2388;SDS011;1205;47.984;7.668;2023-04-03T05:14:49;2.70;;;2.50;;
2388;SDS011;1205;47.984;7.668;2023-04-03T05:17:15;5.07;;;4.07;;
2388;SDS011;1205;47.984;7.668;2023-04-03T05:19:40;2.70;;;2.50;;
2388;SDS011;1205;47.984;7.668;2023-04-03T05:22:06;2.43;;;2.33;;
2388;SDS011;1205;47.984;7.668;2023-04-03T05:24:31;4.33;;;3.40;;
2388;SDS011;1205;47.984;7.668;2023-04-03T05:26:57;2.70;;;2.60;;
2388;SDS011;1205;47.984;7.668;2023-04-03T05:29:23;4.63;;;3.70;;
2388;SDS011;1205;47.984;7.668;2023-04-03T05:31:49;4.50;;;3.97;;
2388;SDS011;1205;47.984;7.668;2023-04-03T05:34:15;7.70;;;4.20;;
2388;SDS011;1205;47.984;7.668;2023-04-03T05:36:41;8.77;;;3.13;;
2388;SDS011;1205;47.984;7.668;2023-04-03T05:39:07;3.90;;;2.80;;
2388;SDS011;1205;47.984;7.668;2023-04-03T05:41:32;3.00;;;2.60;;
2388;SDS011;1205;47.984;7.668;2023-04-03T05:43:58;4.47;;;3.10;;
2388;SDS011;1205;47.984;7.668;2023-04-03T05:46:24;2.93;;;2.63;;
2388;SDS011;1205;47.984;7.668;2023-04-03T05:48:49;1.87;;;1.77;;
2388;SDS011;1205;47.984;7.668;2023-04-03T05:51:23;2.60;;;2.40;;
2388;SDS011;1205;47.984;7.668;2023-04-03T05:53:58;3.17;;;2.90;;
2388;SDS011;1205;47.984;7.668;2023-04-03T05:56:38;3.10;;;2.80;;
2388;SDS011;1205;47.984;7.668;2023-04-03T05:59:04;4.00;;;2.90;;
2388;SDS011;1205;47.984;7.668;2023-04-03T06:01:29;6.50;;;3.10;;
2388;SDS011;1205;47.984;7.668;2023-04-03T06:03:55;3.60;;;3.13;;
2388;SDS011;1205;47.984;7.668;2023-04-03T06:06:23;3.20;;;3.00;;
2388;SDS011;1205;47.984;7.668;2023-04-03T06:08:49;3.70;;;2.80;;
2388;SDS011;1205;47.984;7.668;2023-04-03T06:11:15;3.40;;;3.20;;
2388;SDS011;1205;47.984;7.668;2023-04-03T06:13:41;4.03;;;3.20;;
2388;SDS011;1205;47.984;7.668;2023-04-03T06:16:08;3.00;;;2.80;;
2388;SDS011;1205;47.984;7.668;2023-04-03T06:18:36;3.60;;;3.30;;
2388;SDS011;1205;47.984;7.668;2023-04-03T06:21:02;3.03;;;2.83;;
2388;SDS011;1205;47.984;7.668;2023-04-03T06:23:28;3.67;;;3.37;;
2388;SDS011;1205;47.984;7.668;2023-04-03T06:25:54;5.17;;;3.67;;
2388;SDS011;1205;47.984;7.668;2023-04-03T06:28:19;5.73;;;3.57;;
2388;SDS011;1205;47.984;7.668;2023-04-03T06:30:45;3.53;;;3.27;;
2388;SDS011;1205;47.984;7.668;2023-04-03T06:33:10;5.23;;;3.57;;
2388;SDS011;1205;47.984;7.668;2023-04-03T06:35:36;3.13;;;2.93;;
2388;SDS011;1205;47.984;7.668;2023-04-03T06:38:03;6.33;;;2.97;;
2388;SDS011;1205;47.984;7.668;2023-04-03T06:40:34;4.87;;;3.30;;
2388;SDS011;1205;47.984;7.668;2023-04-03T06:43:00;5.00;;;3.47;;
2388;SDS011;1205;47.984;7.668;2023-04-03T06:45:26;3.60;;;3.40;;
2388;SDS011;1205;47.984;7.668;2023-04-03T06:47:52;3.20;;;3.00;;
2388;SDS011;1205;47.984;7.668;2023-04-03T06:50:18;5.20;;;3.30;;
2388;SDS011;1205;47.984;7.668;2023-04-03T06:52:44;4.10;;;2.97;;
2388;SDS011;1205;47.984;7.668;2023-04-03T06:55:09;2.90;;;2.80;;
2388;SDS011;1205;47.984;7.668;2023-04-03T06:57:36;3.23;;;2.93;;
2388;SDS011;1205;47.984;7.668;2023-04-03T07:00:03;3.63;;;3.33;;
2388;SDS011;1205;47.984;7.668;2023-04-03T07:02:34;3.60;;;3.30;;
2388;SDS011;1205;47.984;7.668;2023-04-03T07:04:59;3.70;;;3.20;;
2388;SDS011;1205;47.984;7.668;2023-04-03T07:07:25;3.20;;;2.90;;
2388;SDS011;1205;47.984;7.668;2023-04-03T07:09:50;3.23;;;2.93;;
2388;SDS011;1205;47.984;7.668;2023-04-03T07:12:16;5.20;;;2.90;;
2388;SDS011;1205;47.984;7.668;2023-04-03T07:14:41;3.70;;;3.40;;
2388;SDS011;1205;47.984;7.668;2023-04-03T07:17:07;3.13;;;2.93;;
2388;SDS011;1205;47.984;7.668;2023-04-03T07:19:33;3.50;;;3.20;;
2388;SDS011;1205;47.984;7.668;2023-04-03T07:21:58;5.97;;;3.90;;
2388;SDS011;1205;47.984;7.668;2023-04-03T07:24:24;7.67;;;5.23;;
2388;SDS011;1205;47.984;7.668;2023-04-03T07:26:51;3.33;;;3.03;;
2388;SDS011;1205;47.984;7.668;2023-04-03T07:29:17;3.17;;;2.87;;
2388;SDS011;1205;47.984;7.668;2023-04-03T07:31:44;3.60;;;3.30;;
2388;SDS011;1205;47.984;7.668;2023-04-03T07:34:10;2.87;;;2.67;;
2388;SDS011;1205;47.984;7.668;2023-04-03T07:36:36;4.33;;;2.30;;
2388;SDS011;1205;47.984;7.668;2023-04-03T07:39:02;4.00;;;2.90;;
2388;SDS011;1205;47.984;7.668;2023-04-03T07:41:28;5.27;;;3.30;;
2388;SDS011;1205;47.984;7.668;2023-04-03T07:43:53;3.60;;;3.30;;
2388;SDS011;1205;47.984;7.668;2023-04-03T07:46:21;2.90;;;2.77;;
2388;SDS011;1205;47.984;7.668;2023-04-03T07:48:47;3.40;;;3.20;;
2388;SDS011;1205;47.984;7.668;2023-04-03T07:51:12;3.00;;;2.70;;
2388;SDS011;1205;47.984;7.668;2023-04-03T07:53:38;4.97;;;2.33;;
2388;SDS011;1205;47.984;7.668;2023-04-03T07:56:04;2.77;;;2.67;;
2388;SDS011;1205;47.984;7.668;2023-04-03T07:58:30;5.57;;;3.23;;
2388;SDS011;1205;47.984;7.668;2023-04-03T08:00:55;2.33;;;2.23;;
2388;SDS011;1205;47.984;7.668;2023-04-03T08:03:22;2.70;;;2.50;;
2388;SDS011;1205;47.984;7.668;2023-04-03T08:05:48;2.30;;;2.20;;
2388;SDS011;1205;47.984;7.668;2023-04-03T08:08:18;2.73;;;2.23;;
2388;SDS011;1205;47.984;7.668;2023-04-03T08:10:52;2.50;;;2.40;;
2388;SDS011;1205;47.984;7.668;2023-04-03T08:13:19;1.97;;;1.87;;
2388;SDS011;1205;47.984;7.668;2023-04-03T08:15:46;2.60;;;2.27;;
2388;SDS011;1205;47.984;7.668;2023-04-03T08:18:12;2.10;;;1.97;;
2388;SDS011;1205;47.984;7.668;2023-04-03T08:20:39;1.97;;;1.87;;
2388;SDS011;1205;47.984;7.668;2023-04-03T08:23:05;2.00;;;1.97;;
2388;SDS011;1205;47.984;7.668;2023-04-03T08:25:32;2.40;;;2.20;;
2388;SDS011;1205;47.984;7.668;2023-04-03T08:27:59;2.30;;;2.20;;
2388;SDS011;1205;47.984;7.668;2023-04-03T08:30:24;1.90;;;1.80;;
2388;SDS011;1205;47.984;7.668;2023-04-03T08:32:50;2.00;;;1.90;;
2388;SDS011;1205;47.984;7.668;2023-04-03T08:35:15;1.70;;;1.60;;
2388;SDS011;1205;47.984;7.668;2023-04-03T08:37:41;3.20;;;3.00;;
2388;SDS011;1205;47.984;7.668;2023-04-03T08:40:07;5.23;;;3.43;;
2388;SDS011;1205;47.984;7.668;2023-04-03T08:45:20;2.60;;;2.50;;
2388;SDS011;1205;47.984;7.668;2023-04-03T08:47:59;2.13;;;2.03;;
2388;SDS011;1205;47.984;7.668;2023-04-03T08:50:37;1.70;;;1.70;;
2388;SDS011;1205;47.984;7.668;2023-04-03T08:53:06;4.70;;;3.00;;
2388;SDS011;1205;47.984;7.668;2023-04-03T08:55:45;3.73;;;2.77;;
2388;SDS011;1205;47.984;7.668;2023-04-03T08:58:19;2.07;;;1.97;;
2388;SDS011;1205;47.984;7.668;2023-04-03T09:01:06;3.20;;;2.97;;
2388;SDS011;1205;47.984;7.668;2023-04-03T09:03:44;2.20;;;2.07;;
2388;SDS011;1205;47.984;7.668;2023-04-03T09:06:14;2.93;;;2.70;;
2388;SDS011;1205;47.984;7.668;2023-04-03T09:09:29;3.00;;;2.20;;
2388;SDS011;1205;47.984;7.668;2023-04-03T09:14:42;3.70;;;3.03;;
2388;SDS011;1205;47.984;7.668;2023-04-03T09:20:11;26.03;;;4.43;;
2388;SDS011;1205;47.984;7.668;2023-04-03T09:22:42;2.90;;;2.20;;
2388;SDS011;1205;47.984;7.668;2023-04-03T09:25:16;2.80;;;2.60;;
2388;SDS011;1205;47.984;7.668;2023-04-03T09:27:45;2.43;;;2.33;;
2388;SDS011;1205;47.984;7.668;2023-04-03T09:30:14;3.60;;;2.67;;
2388;SDS011;1205;47.984;7.668;2023-04-03T09:32:44;4.37;;;2.67;;
2388;SDS011;1205;47.984;7.668;2023-04-03T09:35:45;4.30;;;2.17;;
2388;SDS011;1205;47.984;7.668;2023-04-03T09:40:44;2.53;;;2.43;;
2388;SDS011;1205;47.984;7.668;2023-04-03T09:43:25;5.77;;;3.90;;
2388;SDS011;1205;47.984;7.668;2023-04-03T09:45:53;2.60;;;2.40;;
2388;SDS011;1205;47.984;7.668;2023-04-03T09:48:21;2.07;;;2.00;;
2388;SDS011;1205;47.984;7.668;2023-04-03T09:53:39;2.70;;;2.40;;
2388;SDS011;1205;47.984;7.668;2023-04-03T09:58:42;2.17;;;2.07;;
2388;SDS011;1205;47.984;7.668;2023-04-03T10:01:26;2.00;;;1.90;;
2388;SDS011;1205;47.984;7.668;2023-04-03T10:06:31;1.77;;;1.70;;
2388;SDS011;1205;47.984;7.668;2023-04-03T10:09:02;1.80;;;1.73;;
2388;SDS011;1205;47.984;7.668;2023-04-03T10:11:30;2.47;;;2.13;;
2388;SDS011;1205;47.984;7.668;2023-04-03T10:13:59;2.43;;;2.23;;
2388;SDS011;1205;47.984;7.668;2023-04-03T10:16:38;3.03;;;1.80;;
2388;SDS011;1205;47.984;7.668;2023-04-03T10:21:46;2.70;;;2.13;;
2388;SDS011;1205;47.984;7.668;2023-04-03T10:24:23;2.07;;;1.80;;
2388;SDS011;1205;47.984;7.668;2023-04-03T10:26:57;5.40;;;1.77;;
2388;SDS011;1205;47.984;7.668;2023-04-03T10:29:36;3.10;;;2.90;;
2388;SDS011;1205;47.984;7.668;2023-04-03T10:32:19;2.30;;;2.20;;
2388;SDS011;1205;47.984;7.668;2023-04-03T10:34:47;1.87;;;1.77;;
2388;SDS011;1205;47.984;7.668;2023-04-03T10:37:26;1.67;;;1.57;;
2388;SDS011;1205;47.984;7.668;2023-04-03T10:39:59;2.03;;;1.83;;
2388;SDS011;1205;47.984;7.668;2023-04-03T10:45:01;5.33;;;1.30;;
2388;SDS011;1205;47.984;7.668;2023-04-03T10:56:15;1.30;;;1.20;;
2388;SDS011;1205;47.984;7.668;2023-04-03T10:58:51;1.50;;;1.40;;
2388;SDS011;1205;47.984;7.668;2023-04-03T11:01:23;1.10;;;1.10;;
2388;SDS011;1205;47.984;7.668;2023-04-03T11:03:55;1.03;;;1.03;;
2388;SDS011;1205;47.984;7.668;2023-04-03T11:06:24;2.60;;;1.33;;
2388;SDS011;1205;47.984;7.668;2023-04-03T11:09:19;1.23;;;1.20;;
2388;SDS011;1205;47.984;7.668;2023-04-03T11:12:04;3.70;;;1.50;;
2388;SDS011;1205;47.984;7.668;2023-04-03T11:14:52;1.10;;;1.10;;
2388;SDS011;1205;47.984;7.668;2023-04-03T11:17:22;2.03;;;1.30;;
2388;SDS011;1205;47.984;7.668;2023-04-03T11:25:21;1.60;;;1.10;;
2388;SDS011;1205;47.984;7.668;2023-04-03T11:27:54;2.10;;;1.60;;
2388;SDS011;1205;47.984;7.668;2023-04-03T11:30:21;1.17;;;1.17;;
2388;SDS011;1205;47.984;7.668;2023-04-03T11:32:59;1.40;;;1.40;;
2388;SDS011;1205;47.984;7.668;2023-04-03T11:35:31;2.00;;;1.90;;
2388;SDS011;1205;47.984;7.668;2023-04-03T11:37:58;2.17;;;2.07;;
2388;SDS011;1205;47.984;7.668;2023-04-03T11:40:28;1.53;;;1.53;;
2388;SDS011;1205;47.984;7.668;2023-04-03T11:50:58;1.53;;;1.43;;
2388;SDS011;1205;47.984;7.668;2023-04-03T11:53:47;1.83;;;1.43;;
2388;SDS011;1205;47.984;7.668;2023-04-03T12:04:15;1.40;;;1.40;;
2388;SDS011;1205;47.984;7.668;2023-04-03T12:09:25;1.97;;;1.60;;
2388;SDS011;1205;47.984;7.668;2023-04-03T12:11:54;3.93;;;1.73;;
2388;SDS011;1205;47.984;7.668;2023-04-03T12:14:24;2.33;;;1.40;;
2388;SDS011;1205;47.984;7.668;2023-04-03T12:16:50;2.00;;;1.80;;
2388;SDS011;1205;47.984;7.668;2023-04-03T12:22:12;1.60;;;1.50;;
2388;SDS011;1205;47.984;7.668;2023-04-03T12:24:40;1.80;;;1.70;;
2388;SDS011;1205;47.984;7.668;2023-04-03T12:32:35;1.23;;;1.23;;
2388;SDS011;1205;47.984;7.668;2023-04-03T12:46:14;2.87;;;1.57;;
2388;SDS011;1205;47.984;7.668;2023-04-03T12:51:19;2.33;;;2.13;;
2388;SDS011;1205;47.984;7.668;2023-04-03T12:53:52;2.50;;;2.30;;
2388;SDS011;1205;47.984;7.668;2023-04-03T12:56:42;1.57;;;1.57;;
2388;SDS011;1205;47.984;7.668;2023-04-03T13:01:54;1.73;;;1.63;;
2388;SDS011;1205;47.984;7.668;2023-04-03T13:04:21;3.03;;;1.70;;
2388;SDS011;1205;47.984;7.668;2023-04-03T13:06:47;1.53;;;1.43;;
2388;SDS011;1205;47.984;7.668;2023-04-03T13:11:55;1.53;;;1.43;;
2388;SDS011;1205;47.984;7.668;2023-04-03T13:14:35;3.10;;;2.80;;
2388;SDS011;1205;47.984;7.668;2023-04-03T13:17:09;1.80;;;1.70;;
2388;SDS011;1205;47.984;7.668;2023-04-03T13:19:41;2.20;;;2.00;;
2388;SDS011;1205;47.984;7.668;2023-04-03T13:22:11;3.47;;;2.80;;
2388;SDS011;1205;47.984;7.668;2023-04-03T13:24:45;2.13;;;2.03;;
2388;SDS011;1205;47.984;7.668;2023-04-03T13:27:13;4.70;;;3.40;;
2388;SDS011;1205;47.984;7.668;2023-04-03T13:29:39;3.57;;;3.27;;
2388;SDS011;1205;47.984;7.668;2023-04-03T13:32:06;4.87;;;3.33;;
2388;SDS011;1205;47.984;7.668;2023-04-03T13:34:38;2.40;;;2.23;;
2388;SDS011;1205;47.984;7.668;2023-04-03T13:37:11;1.87;;;1.77;;
2388;SDS011;1205;47.984;7.668;2023-04-03T13:39:45;3.10;;;2.80;;
2388;SDS011;1205;47.984;7.668;2023-04-03T13:42:21;1.60;;;1.60;;
2388;SDS011;1205;47.984;7.668;2023-04-03T13:45:05;3.83;;;2.80;;
2388;SDS011;1205;47.984;7.668;2023-04-03T13:47:45;2.23;;;1.90;;
2388;SDS011;1205;47.984;7.668;2023-04-03T13:50:15;2.00;;;1.90;;
2388;SDS011;1205;47.984;7.668;2023-04-03T13:52:47;1.73;;;1.63;;
2388;SDS011;1205;47.984;7.668;2023-04-03T13:55:26;2.07;;;1.97;;
2388;SDS011;1205;47.984;7.668;2023-04-03T13:58:02;1.97;;;1.87;;
2388;SDS011;1205;47.984;7.668;2023-04-03T14:00:50;1.50;;;1.40;;
2388;SDS011;1205;47.984;7.668;2023-04-03T14:03:46;10.10;;;6.93;;
2388;SDS011;1205;47.984;7.668;2023-04-03T14:06:18;9.67;;;6.83;;
2388;SDS011;1205;47.984;7.668;2023-04-03T14:08:44;3.93;;;2.53;;
2388;SDS011;1205;47.984;7.668;2023-04-03T14:11:15;12.70;;;8.03;;
2388;SDS011;1205;47.984;7.668;2023-04-03T14:13:50;12.17;;;7.63;;
2388;SDS011;1205;47.984;7.668;2023-04-03T14:16:23;7.97;;;5.80;;
2388;SDS011;1205;47.984;7.668;2023-04-03T14:18:52;12.27;;;5.77;;
2388;SDS011;1205;47.984;7.668;2023-04-03T14:21:19;11.47;;;7.80;;
2388;SDS011;1205;47.984;7.668;2023-04-03T14:23:46;3.83;;;3.60;;
2388;SDS011;1205;47.984;7.668;2023-04-03T14:26:16;4.70;;;4.33;;
2388;SDS011;1205;47.984;7.668;2023-04-03T14:28:45;3.13;;;2.97;;
2388;SDS011;1205;47.984;7.668;2023-04-03T14:31:12;2.70;;;2.60;;
2388;SDS011;1205;47.984;7.668;2023-04-03T14:33:40;4.30;;;2.40;;
2388;SDS011;1205;47.984;7.668;2023-04-03T14:38:48;2.67;;;2.47;;
2388;SDS011;1205;47.984;7.668;2023-04-03T14:41:15;1.80;;;1.70;;
2388;SDS011;1205;47.984;7.668;2023-04-03T14:43:42;1.73;;;1.70;;
2388;SDS011;1205;47.984;7.668;2023-04-03T14:46:13;2.80;;;2.30;;
2388;SDS011;1205;47.984;7.668;2023-04-03T14:48:43;1.90;;;1.77;;
2388;SDS011;1205;47.984;7.668;2023-04-03T14:51:13;2.03;;;1.93;;
2388;SDS011;1205;47.984;7.668;2023-04-03T14:53:40;2.33;;;2.20;;
2388;SDS011;1205;47.984;7.668;2023-04-03T14:56:11;2.70;;;2.50;;
2388;SDS011;1205;47.984;7.668;2023-04-03T14:58:42;1.50;;;1.40;;
2388;SDS011;1205;47.984;7.668;2023-04-03T15:01:09;3.37;;;3.03;;
2388;SDS011;1205;47.984;7.668;2023-04-03T15:03:37;7.47;;;5.17;;
2388;SDS011;1205;47.984;7.668;2023-04-03T15:06:02;2.27;;;2.07;;
2388;SDS011;1205;47.984;7.668;2023-04-03T15:08:28;2.13;;;2.00;;
2388;SDS011;1205;47.984;7.668;2023-04-03T15:10:55;2.23;;;2.00;;
2388;SDS011;1205;47.984;7.668;2023-04-03T15:13:21;1.43;;;1.33;;
2388;SDS011;1205;47.984;7.668;2023-04-03T15:15:48;3.23;;;2.20;;
2388;SDS011;1205;47.984;7.668;2023-04-03T15:18:17;2.63;;;1.57;;
2388;SDS011;1205;47.984;7.668;2023-04-03T15:20:45;2.30;;;1.50;;
2388;SDS011;1205;47.984;7.668;2023-04-03T15:23:12;1.83;;;1.73;;
2388;SDS011;1205;47.984;7.668;2023-04-03T15:25:40;1.80;;;1.70;;
2388;SDS011;1205;47.984;7.668;2023-04-03T15:28:22;1.60;;;1.53;;
2388;SDS011;1205;47.984;7.668;2023-04-03T15:30:48;2.80;;;2.60;;
2388;SDS011;1205;47.984;7.668;2023-04-03T15:33:14;2.47;;;2.37;;
2388;SDS011;1205;47.984;7.668;2023-04-03T15:35:40;3.57;;;2.20;;
2388;SDS011;1205;47.984;7.668;2023-04-03T15:38:06;3.43;;;3.23;;
2388;SDS011;1205;47.984;7.668;2023-04-03T15:40:32;2.80;;;2.60;;
2388;SDS011;1205;47.984;7.668;2023-04-03T15:42:57;5.23;;;3.90;;
2388;SDS011;1205;47.984;7.668;2023-04-03T15:45:23;4.30;;;3.90;;
2388;SDS011;1205;47.984;7.668;2023-04-03T15:47:49;2.30;;;2.20;;
2388;SDS011;1205;47.984;7.668;2023-04-03T15:50:15;7.23;;;2.40;;
2388;SDS011;1205;47.984;7.668;2023-04-03T15:52:40;2.20;;;2.00;;
2388;SDS011;1205;47.984;7.668;2023-04-03T15:55:06;1.40;;;1.40;;
2388;SDS011;1205;47.984;7.668;2023-04-03T15:57:32;2.50;;;1.77;;
2388;SDS011;1205;47.984;7.668;2023-04-03T15:59:57;2.30;;;2.10;;
2388;SDS011;1205;47.984;7.668;2023-04-03T16:02:23;2.63;;;2.17;;
2388;SDS011;1205;47.984;7.668;2023-04-03T16:04:52;2.50;;;2.30;;
2388;SDS011;1205;47.984;7.668;2023-04-03T16:07:18;3.93;;;2.10;;
2388;SDS011;1205;47.984;7.668;2023-04-03T16:09:44;3.50;;;2.53;;
2388;SDS011;1205;47.984;7.668;2023-04-03T16:12:10;2.70;;;2.27;;
2388;SDS011;1205;47.984;7.668;2023-04-03T16:14:35;1.80;;;1.70;;
2388;SDS011;1205;47.984;7.668;2023-04-03T16:17:01;1.73;;;1.63;;
2388;SDS011;1205;47.984;7.668;2023-04-03T16:19:26;2.03;;;1.93;;
2388;SDS011;1205;47.984;7.668;2023-04-03T16:21:54;1.20;;;1.20;;
2388;SDS011;1205;47.984;7.668;2023-04-03T16:24:20;1.80;;;1.70;;
2388;SDS011;1205;47.984;7.668;2023-04-03T16:26:46;1.93;;;1.83;;
2388;SDS011;1205;47.984;7.668;2023-04-03T16:29:11;1.90;;;1.50;;
2388;SDS011;1205;47.984;7.668;2023-04-03T16:31:37;1.20;;;1.20;;
2388;SDS011;1205;47.984;7.668;2023-04-03T16:34:03;2.63;;;1.57;;
2388;SDS011;1205;47.984;7.668;2023-04-03T16:36:28;1.90;;;1.80;;
2388;SDS011;1205;47.984;7.668;2023-04-03T16:38:54;3.03;;;1.50;;
2388;SDS011;1205;47.984;7.668;2023-04-03T16:41:19;2.00;;;1.60;;
2388;SDS011;1205;47.984;7.668;2023-04-03T16:43:45;3.73;;;1.40;;
2388;SDS011;1205;47.984;7.668;2023-04-03T16:46:10;1.73;;;1.40;;
2388;SDS011;1205;47.984;7.668;2023-04-03T16:48:36;2.70;;;1.67;;
2388;SDS011;1205;47.984;7.668;2023-04-03T16:51:02;1.00;;;1.00;;
2388;SDS011;1205;47.984;7.668;2023-04-03T16:53:27;2.17;;;1.37;;